sensor_id;sensor_type;location;lat;lon;timestamp;pressure;altitude;pressure_sealevel;temperature;humidity
64362;BME280;50685;53.346;-6.296;2023-05-22T00:00:47;102373.81;;;14.58;74.17
64362;BME280;50685;53.346;-6.296;2023-05-22T00:03:13;102355.16;;;14.51;74.71
64362;BME280;50685;53.346;-6.296;2023-05-22T00:05:38;102375.59;;;14.61;74.65
64362;BME280;50685;53.346;-6.296;2023-05-22T00:08:05;102364.94;;;14.55;74.96
64362;BME280;50685;53.346;-6.296;2023-05-22T00:10:38;102345.44;;;14.37;75.19
64362;BME280;50685;53.346;-6.296;2023-05-22T00:13:03;102391.63;;;14.69;74.90
64362;BME280;50685;53.346;-6.296;2023-05-22T00:15:29;102345.38;;;14.48;75.03
64362;BME280;50685;53.346;-6.296;2023-05-22T00:17:55;102388.94;;;14.72;75.29
64362;BME280;50685;53.346;-6.296;2023-05-22T00:20:20;102365.84;;;14.55;75.07
64362;BME280;50685;53.346;-6.296;2023-05-22T00:22:47;102383.59;;;14.64;75.21
64362;BME280;50685;53.346;-6.296;2023-05-22T00:25:14;102383.63;;;14.55;75.49
64362;BME280;50685;53.346;-6.296;2023-05-22T00:27:42;102365.88;;;14.44;75.82
64362;BME280;50685;53.346;-6.296;2023-05-22T00:30:08;102391.63;;;14.53;75.64
64362;BME280;50685;53.346;-6.296;2023-05-22T00:32:33;102380.97;;;14.56;75.63
64362;BME280;50685;53.346;-6.296;2023-05-22T00:34:59;102369.41;;;14.45;75.50
64362;BME280;50685;53.346;-6.296;2023-05-22T00:37:24;102382.75;;;14.53;75.78
64362;BME280;50685;53.346;-6.296;2023-05-22T00:39:50;102377.44;;;14.48;75.68
64362;BME280;50685;53.346;-6.296;2023-05-22T00:42:16;102341.03;;;14.22;75.65
64362;BME280;50685;53.346;-6.296;2023-05-22T00:44:42;102388.09;;;14.48;76.00
64362;BME280;50685;53.346;-6.296;2023-05-22T00:47:07;102353.47;;;14.29;75.72
64362;BME280;50685;53.346;-6.296;2023-05-22T00:49:34;102385.44;;;14.39;76.02
64362;BME280;50685;53.346;-6.296;2023-05-22T00:52:00;102391.69;;;14.32;76.46
64362;BME280;50685;53.346;-6.296;2023-05-22T00:54:27;102367.72;;;14.13;76.58
64362;BME280;50685;53.346;-6.296;2023-05-22T00:56:56;102386.38;;;14.24;76.81
64362;BME280;50685;53.346;-6.296;2023-05-22T00:59:21;102384.59;;;14.24;76.76
64362;BME280;50685;53.346;-6.296;2023-05-22T01:01:47;102389.06;;;14.28;76.80
64362;BME280;50685;53.346;-6.296;2023-05-22T01:04:13;102386.41;;;14.27;76.95
64362;BME280;50685;53.346;-6.296;2023-05-22T01:06:39;102379.25;;;14.24;76.71
64362;BME280;50685;53.346;-6.296;2023-05-22T01:09:05;102392.59;;;14.32;76.81
64362;BME280;50685;53.346;-6.296;2023-05-22T01:11:38;102390.81;;;14.26;76.71
64362;BME280;50685;53.346;-6.296;2023-05-22T01:14:39;102367.75;;;14.05;77.03
64362;BME280;50685;53.346;-6.296;2023-05-22T01:17:27;102390.88;;;14.12;77.55
64362;BME280;50685;53.346;-6.296;2023-05-22T01:20:10;102366.88;;;14.00;77.78
64362;BME280;50685;53.346;-6.296;2023-05-22T01:22:50;102390.84;;;14.19;77.78
64362;BME280;50685;53.346;-6.296;2023-05-22T01:31:10;102389.06;;;14.27;77.10
64362;BME280;50685;53.346;-6.296;2023-05-22T01:33:59;102370.41;;;14.16;76.86
64362;BME280;50685;53.346;-6.296;2023-05-22T01:36:29;102341.94;;;14.06;76.34
64362;BME280;50685;53.346;-6.296;2023-05-22T01:38:57;102387.25;;;14.35;76.42
64362;BME280;50685;53.346;-6.296;2023-05-22T01:41:23;102355.28;;;14.13;76.23
64362;BME280;50685;53.346;-6.296;2023-05-22T01:43:48;102388.16;;;14.29;76.63
64362;BME280;50685;53.346;-6.296;2023-05-22T01:46:14;102396.16;;;14.28;76.62
64362;BME280;50685;53.346;-6.296;2023-05-22T01:48:39;102341.97;;;13.93;77.33
64362;BME280;50685;53.346;-6.296;2023-05-22T01:54:03;102392.66;;;14.07;78.04
64362;BME280;50685;53.346;-6.296;2023-05-22T01:59:47;102387.31;;;13.98;78.30
64362;BME280;50685;53.346;-6.296;2023-05-22T02:02:17;102387.34;;;13.86;78.46
64362;BME280;50685;53.346;-6.296;2023-05-22T02:04:52;102345.56;;;13.61;78.25
64362;BME280;50685;53.346;-6.296;2023-05-22T02:07:21;102390.00;;;13.93;78.07
64362;BME280;50685;53.346;-6.296;2023-05-22T02:09:49;102393.56;;;13.88;77.88
64362;BME280;50685;53.346;-6.296;2023-05-22T02:12:15;102390.00;;;13.87;77.96
64362;BME280;50685;53.346;-6.296;2023-05-22T02:14:42;102364.25;;;13.69;77.99
64362;BME280;50685;53.346;-6.296;2023-05-22T02:17:08;102366.00;;;13.64;77.97
64362;BME280;50685;53.346;-6.296;2023-05-22T02:19:36;102398.00;;;13.81;77.59
64362;BME280;50685;53.346;-6.296;2023-05-22T02:22:02;102401.56;;;13.80;77.64
64362;BME280;50685;53.346;-6.296;2023-05-22T02:24:29;102402.47;;;13.85;77.15
64362;BME280;50685;53.346;-6.296;2023-05-22T02:26:54;102362.47;;;13.68;77.05
64362;BME280;50685;53.346;-6.296;2023-05-22T02:29:20;102392.69;;;13.89;77.38
64362;BME280;50685;53.346;-6.296;2023-05-22T02:31:45;102394.44;;;13.84;76.40
64362;BME280;50685;53.346;-6.296;2023-05-22T02:34:11;102370.47;;;13.63;76.51
64362;BME280;50685;53.346;-6.296;2023-05-22T02:36:36;102403.34;;;13.69;76.64
64362;BME280;50685;53.346;-6.296;2023-05-22T02:39:05;102405.13;;;13.68;76.03
64362;BME280;50685;53.346;-6.296;2023-05-22T02:41:42;102367.75;;;13.32;74.37
64362;BME280;50685;53.346;-6.296;2023-05-22T02:44:14;102414.84;;;13.37;71.93
64362;BME280;50685;53.346;-6.296;2023-05-22T02:46:39;102362.38;;;13.05;71.59
64362;BME280;50685;53.346;-6.296;2023-05-22T02:49:05;102387.28;;;13.17;71.82
64362;BME280;50685;53.346;-6.296;2023-05-22T02:51:30;102398.81;;;13.20;71.66
64362;BME280;50685;53.346;-6.296;2023-05-22T02:53:56;102400.59;;;13.11;71.84
64362;BME280;50685;53.346;-6.296;2023-05-22T02:56:21;102423.69;;;13.22;71.68
64362;BME280;50685;53.346;-6.296;2023-05-22T02:58:48;102431.69;;;13.22;72.04
64362;BME280;50685;53.346;-6.296;2023-05-22T03:01:13;102414.78;;;13.18;72.33
64362;BME280;50685;53.346;-6.296;2023-05-22T03:03:39;102425.50;;;13.27;71.95
64362;BME280;50685;53.346;-6.296;2023-05-22T03:06:05;102426.38;;;13.26;71.96
64362;BME280;50685;53.346;-6.296;2023-05-22T03:08:33;102423.69;;;13.23;72.66
64362;BME280;50685;53.346;-6.296;2023-05-22T03:11:02;102400.59;;;13.11;72.73
64362;BME280;50685;53.346;-6.296;2023-05-22T03:13:28;102420.13;;;13.18;72.83
64362;BME280;50685;53.346;-6.296;2023-05-22T03:15:53;102382.78;;;12.93;72.52
64362;BME280;50685;53.346;-6.296;2023-05-22T03:18:19;102424.53;;;13.07;72.53
64362;BME280;50685;53.346;-6.296;2023-05-22T03:20:46;102394.25;;;12.83;72.63
64362;BME280;50685;53.346;-6.296;2023-05-22T03:23:11;102392.47;;;12.77;72.90
64362;BME280;50685;53.346;-6.296;2023-05-22T03:25:39;102428.94;;;12.98;72.78
64362;BME280;50685;53.346;-6.296;2023-05-22T03:28:05;102396.03;;;12.82;72.96
64362;BME280;50685;53.346;-6.296;2023-05-22T03:30:30;102374.72;;;12.75;72.92
64362;BME280;50685;53.346;-6.296;2023-05-22T03:32:56;102418.28;;;12.98;72.88
64362;BME280;50685;53.346;-6.296;2023-05-22T03:35:22;102428.06;;;13.07;72.51
64362;BME280;50685;53.346;-6.296;2023-05-22T03:37:51;102428.09;;;13.10;72.64
64362;BME280;50685;53.346;-6.296;2023-05-22T03:40:17;102436.06;;;13.09;72.66
64362;BME280;50685;53.346;-6.296;2023-05-22T03:42:42;102436.09;;;13.10;73.23
64362;BME280;50685;53.346;-6.296;2023-05-22T03:45:08;102422.72;;;12.92;74.24
64362;BME280;50685;53.346;-6.296;2023-05-22T03:47:33;102395.97;;;12.67;74.38
64362;BME280;50685;53.346;-6.296;2023-05-22T03:49:59;102449.31;;;12.85;74.69
64362;BME280;50685;53.346;-6.296;2023-05-22T03:52:24;102455.47;;;12.74;73.67
64362;BME280;50685;53.346;-6.296;2023-05-22T03:54:52;102451.91;;;12.68;72.96
64362;BME280;50685;53.346;-6.296;2023-05-22T03:57:21;102454.53;;;12.67;71.71
64362;BME280;50685;53.346;-6.296;2023-05-22T03:59:47;102458.91;;;12.54;71.83
64362;BME280;50685;53.346;-6.296;2023-05-22T04:02:12;102459.78;;;12.51;71.50
64362;BME280;50685;53.346;-6.296;2023-05-22T04:04:41;102458.84;;;12.42;70.34
64362;BME280;50685;53.346;-6.296;2023-05-22T04:07:08;102422.31;;;12.17;70.76
64362;BME280;50685;53.346;-6.296;2023-05-22T04:09:49;102444.50;;;12.21;70.25
64362;BME280;50685;53.346;-6.296;2023-05-22T04:12:14;102467.66;;;12.33;70.54
64362;BME280;50685;53.346;-6.296;2023-05-22T04:14:40;102468.53;;;12.33;70.57
64362;BME280;50685;53.346;-6.296;2023-05-22T04:17:05;102466.78;;;12.37;70.31
64362;BME280;50685;53.346;-6.296;2023-05-22T04:19:31;102424.97;;;12.17;69.87
64362;BME280;50685;53.346;-6.296;2023-05-22T04:21:57;102439.28;;;12.33;69.99
64362;BME280;50685;53.346;-6.296;2023-05-22T04:24:22;102471.34;;;12.55;69.97
64362;BME280;50685;53.346;-6.296;2023-05-22T04:26:48;102481.97;;;12.50;69.58
64362;BME280;50685;53.346;-6.296;2023-05-22T04:29:14;102470.31;;;12.34;70.09
64362;BME280;50685;53.346;-6.296;2023-05-22T04:31:41;102433.81;;;12.13;70.29
64362;BME280;50685;53.346;-6.296;2023-05-22T04:34:11;102469.50;;;12.42;70.15
64362;BME280;50685;53.346;-6.296;2023-05-22T04:36:39;102473.94;;;12.44;69.66
64362;BME280;50685;53.346;-6.296;2023-05-22T04:39:05;102463.22;;;12.35;69.42
64362;BME280;50685;53.346;-6.296;2023-05-22T04:41:31;102470.28;;;12.31;69.55
64362;BME280;50685;53.346;-6.296;2023-05-22T04:43:59;102488.06;;;12.35;69.36
64362;BME280;50685;53.346;-6.296;2023-05-22T04:46:28;102454.19;;;12.10;69.54
64362;BME280;50685;53.346;-6.296;2023-05-22T04:48:53;102445.28;;;12.04;69.77
64362;BME280;50685;53.346;-6.296;2023-05-22T04:51:19;102439.97;;;12.04;69.80
64362;BME280;50685;53.346;-6.296;2023-05-22T04:53:45;102487.03;;;12.16;70.58
64362;BME280;50685;53.346;-6.296;2023-05-22T04:56:13;102470.97;;;12.05;70.84
64362;BME280;50685;53.346;-6.296;2023-05-22T04:58:42;102502.97;;;12.13;71.32
64362;BME280;50685;53.346;-6.296;2023-05-22T05:01:07;102470.81;;;11.88;71.22
64362;BME280;50685;53.346;-6.296;2023-05-22T05:03:33;102506.50;;;12.11;71.37
64362;BME280;50685;53.346;-6.296;2023-05-22T05:05:59;102508.25;;;12.10;71.37
64362;BME280;50685;53.346;-6.296;2023-05-22T05:08:24;102491.25;;;11.93;71.49
64362;BME280;50685;53.346;-6.296;2023-05-22T05:10:50;102472.47;;;11.72;71.77
64362;BME280;50685;53.346;-6.296;2023-05-22T05:13:16;102469.81;;;11.77;71.95
64362;BME280;50685;53.346;-6.296;2023-05-22T05:15:41;102504.69;;;12.07;72.06
64362;BME280;50685;53.346;-6.296;2023-05-22T05:18:09;102519.75;;;12.09;72.83
64362;BME280;50685;53.346;-6.296;2023-05-22T05:20:35;102516.19;;;12.04;73.28
64362;BME280;50685;53.346;-6.296;2023-05-22T05:23:00;102521.41;;;11.95;74.07
64362;BME280;50685;53.346;-6.296;2023-05-22T05:25:28;102490.16;;;11.70;74.29
64362;BME280;50685;53.346;-6.296;2023-05-22T05:27:54;102506.09;;;11.73;74.68
64362;BME280;50685;53.346;-6.296;2023-05-22T05:30:20;102498.13;;;11.70;75.11
64362;BME280;50685;53.346;-6.296;2023-05-22T05:32:46;102531.97;;;11.88;74.90
64362;BME280;50685;53.346;-6.296;2023-05-22T05:35:13;102550.56;;;11.87;75.51
64362;BME280;50685;53.346;-6.296;2023-05-22T05:37:39;102545.22;;;11.82;75.66
64362;BME280;50685;53.346;-6.296;2023-05-22T05:40:17;102508.75;;;11.69;75.18
64362;BME280;50685;53.346;-6.296;2023-05-22T05:42:42;102546.19;;;11.92;74.69
64362;BME280;50685;53.346;-6.296;2023-05-22T05:45:09;102511.41;;;11.72;73.33
64362;BME280;50685;53.346;-6.296;2023-05-22T05:47:34;102505.19;;;11.70;73.60
64362;BME280;50685;53.346;-6.296;2023-05-22T05:50:00;102500.78;;;11.72;72.63
64362;BME280;50685;53.346;-6.296;2023-05-22T05:52:32;102551.56;;;11.97;72.10
64362;BME280;50685;53.346;-6.296;2023-05-22T05:55:03;102515.97;;;11.82;71.64
64362;BME280;50685;53.346;-6.296;2023-05-22T05:57:30;102504.44;;;11.82;71.55
64362;BME280;50685;53.346;-6.296;2023-05-22T05:59:55;102508.00;;;11.87;70.98
64362;BME280;50685;53.346;-6.296;2023-05-22T06:02:21;102514.38;;;12.00;70.28
64362;BME280;50685;53.346;-6.296;2023-05-22T06:04:46;102511.72;;;11.98;69.95
64362;BME280;50685;53.346;-6.296;2023-05-22T06:07:13;102550.03;;;12.20;69.63
64362;BME280;50685;53.346;-6.296;2023-05-22T06:09:38;102498.34;;;11.94;68.90
64362;BME280;50685;53.346;-6.296;2023-05-22T06:12:05;102557.16;;;12.26;68.86
64362;BME280;50685;53.346;-6.296;2023-05-22T06:14:30;102514.38;;;11.98;68.28
64362;BME280;50685;53.346;-6.296;2023-05-22T06:16:56;102548.25;;;12.19;67.88
64362;BME280;50685;53.346;-6.296;2023-05-22T06:19:22;102560.63;;;12.17;67.14
64362;BME280;50685;53.346;-6.296;2023-05-22T06:21:47;102569.47;;;12.15;66.88
64362;BME280;50685;53.346;-6.296;2023-05-22T06:24:13;102577.47;;;12.16;66.80
64362;BME280;50685;53.346;-6.296;2023-05-22T06:26:44;102575.72;;;12.18;66.50
64362;BME280;50685;53.346;-6.296;2023-05-22T06:29:09;102550.75;;;12.04;66.81
64362;BME280;50685;53.346;-6.296;2023-05-22T06:31:35;102567.69;;;12.11;67.24
64362;BME280;50685;53.346;-6.296;2023-05-22T06:34:04;102548.97;;;12.03;67.11
64362;BME280;50685;53.346;-6.296;2023-05-22T06:36:35;102532.91;;;11.95;67.00
64362;BME280;50685;53.346;-6.296;2023-05-22T06:39:01;102528.47;;;11.91;66.59
64362;BME280;50685;53.346;-6.296;2023-05-22T06:41:27;102571.16;;;12.05;66.42
64362;BME280;50685;53.346;-6.296;2023-05-22T06:43:53;102528.41;;;11.85;66.53
64362;BME280;50685;53.346;-6.296;2023-05-22T06:46:18;102555.25;;;12.13;66.78
64362;BME280;50685;53.346;-6.296;2023-05-22T06:48:43;102564.16;;;12.13;66.30
64362;BME280;50685;53.346;-6.296;2023-05-22T06:51:09;102566.81;;;12.15;66.12
64362;BME280;50685;53.346;-6.296;2023-05-22T06:53:37;102542.78;;;12.02;65.53
64362;BME280;50685;53.346;-6.296;2023-05-22T06:56:03;102552.53;;;12.05;65.82
64362;BME280;50685;53.346;-6.296;2023-05-22T06:58:28;102527.72;;;12.04;65.73
64362;BME280;50685;53.346;-6.296;2023-05-22T07:00:57;102522.44;;;12.09;65.12
64362;BME280;50685;53.346;-6.296;2023-05-22T07:03:22;102573.28;;;12.43;65.04
64362;BME280;50685;53.346;-6.296;2023-05-22T07:05:48;102560.78;;;12.33;63.96
64362;BME280;50685;53.346;-6.296;2023-05-22T07:23:28;102586.13;;;13.06;60.92
64362;BME280;50685;53.346;-6.296;2023-05-22T07:25:55;102573.69;;;13.04;59.82
64362;BME280;50685;53.346;-6.296;2023-05-22T07:28:20;102600.41;;;13.17;59.79
64362;BME280;50685;53.346;-6.296;2023-05-22T07:31:03;102589.75;;;13.19;58.93
64362;BME280;50685;53.346;-6.296;2023-05-22T07:33:31;102561.22;;;13.01;58.79
64362;BME280;50685;53.346;-6.296;2023-05-22T07:36:05;102547.00;;;12.94;58.96
64362;BME280;50685;53.346;-6.296;2023-05-22T07:38:31;102590.66;;;13.21;59.25
64362;BME280;50685;53.346;-6.296;2023-05-22T07:41:04;102568.47;;;13.25;59.43
64362;BME280;50685;53.346;-6.296;2023-05-22T07:43:30;102592.63;;;13.53;58.59
64362;BME280;50685;53.346;-6.296;2023-05-22T07:45:55;102598.91;;;13.69;58.36
64362;BME280;50685;53.346;-6.296;2023-05-22T07:48:27;102606.09;;;13.95;57.61
64362;BME280;50685;53.346;-6.296;2023-05-22T07:50:55;102617.69;;;14.17;56.96
64362;BME280;50685;53.346;-6.296;2023-05-22T07:53:36;102614.13;;;14.32;54.53
64362;BME280;50685;53.346;-6.296;2023-05-22T07:56:01;102608.78;;;14.34;54.43
64362;BME280;50685;53.346;-6.296;2023-05-22T08:05:24;102626.59;;;15.04;52.98
64362;BME280;50685;53.346;-6.296;2023-05-22T08:10:22;102632.66;;;15.59;50.24
64362;BME280;50685;53.346;-6.296;2023-05-22T08:12:48;102586.38;;;15.41;50.66
64362;BME280;50685;53.346;-6.296;2023-05-22T08:15:13;102599.72;;;15.48;50.23
64362;BME280;50685;53.346;-6.296;2023-05-22T08:17:47;102608.50;;;15.76;50.58
64362;BME280;50685;53.346;-6.296;2023-05-22T08:20:13;102592.41;;;15.90;49.77
64362;BME280;50685;53.346;-6.296;2023-05-22T08:22:39;102592.34;;;15.99;48.77
64362;BME280;50685;53.346;-6.296;2023-05-22T08:25:06;102600.38;;;15.99;48.19
64362;BME280;50685;53.346;-6.296;2023-05-22T08:27:33;102592.50;;;15.70;48.08
64362;BME280;50685;53.346;-6.296;2023-05-22T08:29:58;102579.22;;;15.50;48.41
64362;BME280;50685;53.346;-6.296;2023-05-22T08:32:24;102586.28;;;15.57;47.32
64362;BME280;50685;53.346;-6.296;2023-05-22T08:34:49;102590.63;;;15.81;47.01
64362;BME280;50685;53.346;-6.296;2023-05-22T08:37:15;102620.91;;;15.96;46.51
64362;BME280;50685;53.346;-6.296;2023-05-22T08:39:40;102575.50;;;15.82;46.96
64362;BME280;50685;53.346;-6.296;2023-05-22T08:42:06;102602.06;;;16.13;46.79
64362;BME280;50685;53.346;-6.296;2023-05-22T08:44:32;102574.31;;;16.23;46.75
64362;BME280;50685;53.346;-6.296;2023-05-22T08:46:59;102635.59;;;16.65;46.19
64362;BME280;50685;53.346;-6.296;2023-05-22T08:49:25;102609.75;;;16.59;46.05
64362;BME280;50685;53.346;-6.296;2023-05-22T08:52:02;102610.47;;;16.78;45.48
64362;BME280;50685;53.346;-6.296;2023-05-22T08:54:29;102620.97;;;17.01;45.70
64362;BME280;50685;53.346;-6.296;2023-05-22T08:56:56;102549.66;;;16.85;45.31
64362;BME280;50685;53.346;-6.296;2023-05-22T08:59:22;102579.53;;;17.30;43.23
64362;BME280;50685;53.346;-6.296;2023-05-22T09:01:48;102584.03;;;17.28;43.49
64362;BME280;50685;53.346;-6.296;2023-05-22T09:04:16;102572.38;;;17.32;42.61
64362;BME280;50685;53.346;-6.296;2023-05-22T09:06:45;102580.09;;;17.57;42.97
64362;BME280;50685;53.346;-6.296;2023-05-22T09:09:11;102565.69;;;17.64;42.78
64362;BME280;50685;53.346;-6.296;2023-05-22T09:11:38;102584.00;;;18.00;42.24
64362;BME280;50685;53.346;-6.296;2023-05-22T09:14:07;102598.25;;;18.60;41.84
64362;BME280;50685;53.346;-6.296;2023-05-22T09:16:43;102581.03;;;18.72;41.05
64362;BME280;50685;53.346;-6.296;2023-05-22T09:19:08;102609.72;;;18.70;41.37
64362;BME280;50685;53.346;-6.296;2023-05-22T09:21:35;102555.78;;;18.27;40.92
64362;BME280;50685;53.346;-6.296;2023-05-22T09:24:01;102588.97;;;18.76;40.95
64362;BME280;50685;53.346;-6.296;2023-05-22T09:26:27;102572.59;;;18.92;40.34
64362;BME280;50685;53.346;-6.296;2023-05-22T09:28:53;102566.81;;;19.14;39.94
64362;BME280;50685;53.346;-6.296;2023-05-22T09:31:19;102584.72;;;19.13;39.62
64362;BME280;50685;53.346;-6.296;2023-05-22T09:33:44;102569.88;;;18.42;40.53
64362;BME280;50685;53.346;-6.296;2023-05-22T09:36:10;102572.94;;;18.20;41.52
64362;BME280;50685;53.346;-6.296;2023-05-22T09:38:40;102582.09;;;18.08;41.07
64362;BME280;50685;53.346;-6.296;2023-05-22T09:41:05;102576.00;;;17.97;41.28
64362;BME280;50685;53.346;-6.296;2023-05-22T09:43:32;102587.59;;;17.97;41.61
64362;BME280;50685;53.346;-6.296;2023-05-22T09:46:01;102574.16;;;17.33;42.35
64362;BME280;50685;53.346;-6.296;2023-05-22T09:48:33;102575.41;;;17.01;43.07
64362;BME280;50685;53.346;-6.296;2023-05-22T09:51:01;102601.94;;;17.26;43.27
64362;BME280;50685;53.346;-6.296;2023-05-22T09:53:28;102576.38;;;16.97;43.76
64362;BME280;50685;53.346;-6.296;2023-05-22T09:56:01;102591.63;;;16.88;44.02
64362;BME280;50685;53.346;-6.296;2023-05-22T09:58:32;102617.88;;;17.39;43.23
64362;BME280;50685;53.346;-6.296;2023-05-22T10:01:01;102562.75;;;17.16;43.13
64362;BME280;50685;53.346;-6.296;2023-05-22T10:03:33;102616.41;;;17.83;42.89
64362;BME280;50685;53.346;-6.296;2023-05-22T10:05:59;102584.97;;;17.91;41.93
64362;BME280;50685;53.346;-6.296;2023-05-22T10:08:39;102583.31;;;18.42;41.08
64362;BME280;50685;53.346;-6.296;2023-05-22T10:11:06;102536.59;;;18.51;40.05
64362;BME280;50685;53.346;-6.296;2023-05-22T10:13:34;102599.41;;;18.45;39.43
64362;BME280;50685;53.346;-6.296;2023-05-22T10:16:03;102570.09;;;18.29;39.13
64362;BME280;50685;53.346;-6.296;2023-05-22T10:18:29;102577.97;;;18.92;38.47
64362;BME280;50685;53.346;-6.296;2023-05-22T10:20:56;102589.66;;;19.36;37.76
64362;BME280;50685;53.346;-6.296;2023-05-22T10:23:23;102562.41;;;19.52;37.40
64362;BME280;50685;53.346;-6.296;2023-05-22T10:25:49;102594.59;;;19.14;38.63
64362;BME280;50685;53.346;-6.296;2023-05-22T10:28:40;102573.22;;;18.56;38.83
64362;BME280;50685;53.346;-6.296;2023-05-22T10:34:25;102570.53;;;18.03;40.48
64362;BME280;50685;53.346;-6.296;2023-05-22T10:40:00;102596.94;;;17.69;40.05
64362;BME280;50685;53.346;-6.296;2023-05-22T10:42:30;102565.50;;;17.77;40.19
64362;BME280;50685;53.346;-6.296;2023-05-22T10:44:55;102588.28;;;18.12;39.32
64362;BME280;50685;53.346;-6.296;2023-05-22T10:47:21;102580.84;;;18.29;39.32
64362;BME280;50685;53.346;-6.296;2023-05-22T10:49:46;102573.56;;;18.38;39.08
64362;BME280;50685;53.346;-6.296;2023-05-22T10:52:14;102605.22;;;18.70;38.09
64362;BME280;50685;53.346;-6.296;2023-05-22T10:54:44;102613.84;;;18.38;38.96
64362;BME280;50685;53.346;-6.296;2023-05-22T10:57:15;102590.59;;;18.35;39.14
64362;BME280;50685;53.346;-6.296;2023-05-22T10:59:41;102601.50;;;18.77;38.15
64362;BME280;50685;53.346;-6.296;2023-05-22T11:02:18;102618.63;;;19.22;37.36
64362;BME280;50685;53.346;-6.296;2023-05-22T11:04:44;102622.31;;;19.62;37.59
64362;BME280;50685;53.346;-6.296;2023-05-22T11:07:10;102604.69;;;19.89;36.83
64362;BME280;50685;53.346;-6.296;2023-05-22T11:09:42;102618.78;;;20.38;35.60
64362;BME280;50685;53.346;-6.296;2023-05-22T11:14:56;102602.56;;;20.77;34.30
64362;BME280;50685;53.346;-6.296;2023-05-22T11:22:57;102594.78;;;20.63;34.70
64362;BME280;50685;53.346;-6.296;2023-05-22T11:25:23;102557.88;;;20.31;35.40
64362;BME280;50685;53.346;-6.296;2023-05-22T11:27:52;102583.97;;;20.65;34.93
64362;BME280;50685;53.346;-6.296;2023-05-22T11:33:40;102574.63;;;20.80;33.80
64362;BME280;50685;53.346;-6.296;2023-05-22T11:36:05;102566.94;;;20.97;33.80
64362;BME280;50685;53.346;-6.296;2023-05-22T11:38:33;102562.31;;;20.68;34.24
64362;BME280;50685;53.346;-6.296;2023-05-22T11:40:59;102576.63;;;20.70;34.70
64362;BME280;50685;53.346;-6.296;2023-05-22T11:43:29;102570.34;;;21.04;33.95
64362;BME280;50685;53.346;-6.296;2023-05-22T11:46:07;102572.53;;;21.21;33.74
64362;BME280;50685;53.346;-6.296;2023-05-22T11:48:39;102563.78;;;20.81;33.75
64362;BME280;50685;53.346;-6.296;2023-05-22T11:51:07;102557.19;;;20.59;33.56
64362;BME280;50685;53.346;-6.296;2023-05-22T11:53:33;102571.41;;;20.98;33.77
64362;BME280;50685;53.346;-6.296;2023-05-22T11:56:04;102572.69;;;21.16;33.44
64362;BME280;50685;53.346;-6.296;2023-05-22T12:11:19;102582.19;;;20.64;34.68
64362;BME280;50685;53.346;-6.296;2023-05-22T12:13:45;102594.47;;;21.09;33.90
64362;BME280;50685;53.346;-6.296;2023-05-22T12:16:18;102531.94;;;21.26;33.71
64362;BME280;50685;53.346;-6.296;2023-05-22T12:18:46;102554.44;;;21.85;33.46
64362;BME280;50685;53.346;-6.296;2023-05-22T12:21:43;102583.28;;;22.41;32.26
64362;BME280;50685;53.346;-6.296;2023-05-22T12:24:09;102537.78;;;21.98;32.30
64362;BME280;50685;53.346;-6.296;2023-05-22T12:26:36;102575.59;;;21.98;32.94
64362;BME280;50685;53.346;-6.296;2023-05-22T12:29:03;102545.31;;;21.60;33.15
64362;BME280;50685;53.346;-6.296;2023-05-22T12:31:33;102564.59;;;21.16;33.26
64362;BME280;50685;53.346;-6.296;2023-05-22T12:34:06;102586.72;;;21.59;32.76
64362;BME280;50685;53.346;-6.296;2023-05-22T12:36:33;102574.44;;;21.79;32.65
64362;BME280;50685;53.346;-6.296;2023-05-22T12:39:07;102575.53;;;21.73;32.78
64362;BME280;50685;53.346;-6.296;2023-05-22T12:41:33;102589.59;;;21.23;33.65
64362;BME280;50685;53.346;-6.296;2023-05-22T12:43:59;102578.13;;;20.83;34.07
64362;BME280;50685;53.346;-6.296;2023-05-22T12:46:26;102585.97;;;20.91;33.94
64362;BME280;50685;53.346;-6.296;2023-05-22T12:52:30;102546.88;;;21.67;33.03
64362;BME280;50685;53.346;-6.296;2023-05-22T12:54:56;102540.16;;;21.81;33.07
64362;BME280;50685;53.346;-6.296;2023-05-22T12:57:22;102571.50;;;21.57;32.48
64362;BME280;50685;53.346;-6.296;2023-05-22T13:00:10;102587.91;;;21.80;32.40
64362;BME280;50685;53.346;-6.296;2023-05-22T13:09:22;102536.75;;;21.46;32.84
64362;BME280;50685;53.346;-6.296;2023-05-22T13:11:51;102599.91;;;22.00;32.59
64362;BME280;50685;53.346;-6.296;2023-05-22T13:14:17;102604.78;;;21.87;32.21
64362;BME280;50685;53.346;-6.296;2023-05-22T13:16:42;102579.28;;;21.38;32.79
64362;BME280;50685;53.346;-6.296;2023-05-22T13:19:08;102556.81;;;21.67;32.13
64362;BME280;50685;53.346;-6.296;2023-05-22T13:21:43;102587.97;;;22.07;31.94
64362;BME280;50685;53.346;-6.296;2023-05-22T13:24:16;102614.53;;;22.21;31.87
64362;BME280;50685;53.346;-6.296;2023-05-22T13:26:42;102558.66;;;21.65;32.22
64362;BME280;50685;53.346;-6.296;2023-05-22T13:29:10;102559.22;;;21.16;32.75
64362;BME280;50685;53.346;-6.296;2023-05-22T13:35:14;102539.41;;;20.15;34.55
64362;BME280;50685;53.346;-6.296;2023-05-22T13:38:02;102611.84;;;20.28;34.84
64362;BME280;50685;53.346;-6.296;2023-05-22T13:41:30;102547.88;;;20.00;34.90
64362;BME280;50685;53.346;-6.296;2023-05-22T13:44:19;102586.13;;;20.50;34.18
64362;BME280;50685;53.346;-6.296;2023-05-22T13:50:06;102611.13;;;20.92;34.28
64362;BME280;50685;53.346;-6.296;2023-05-22T13:52:47;102586.38;;;21.10;33.61
64362;BME280;50685;53.346;-6.296;2023-05-22T13:58:22;102601.81;;;20.34;34.46
64362;BME280;50685;53.346;-6.296;2023-05-22T14:00:47;102592.25;;;20.21;34.45
64362;BME280;50685;53.346;-6.296;2023-05-22T14:03:16;102573.44;;;20.19;34.66
64362;BME280;50685;53.346;-6.296;2023-05-22T14:05:43;102574.44;;;20.15;35.16
64362;BME280;50685;53.346;-6.296;2023-05-22T14:08:09;102577.00;;;20.20;35.17
64362;BME280;50685;53.346;-6.296;2023-05-22T14:10:34;102562.47;;;19.91;35.23
64362;BME280;50685;53.346;-6.296;2023-05-22T14:13:01;102623.63;;;19.84;35.86